Time;durP1;ratioP1;P1;durP2;ratioP2;P2;SDS_P1;SDS_P2;PMS_P1;PMS_P2;Temp;Humidity;BMP_temperature;BMP_pressure;BME280_temperature;BME280_humidity;BME280_pressure;Samples;Min_cycle;Max_cycle;Signal;HPM_P1;HPM_P2
2022/01/04 00:01:04;;;;;;;29.77;17.90;;;;;;;-144.19;100.00;76110.75;5014936;28;20045;-89
2022/01/04 00:03:31;;;;;;;35.20;19.90;;;;;;;-144.19;100.00;76106.81;5014752;28;20054;-87
2022/01/04 00:05:57;;;;;;;32.28;19.10;;;;;;;-144.19;100.00;76106.81;5013482;28;20061;-89
2022/01/04 00:08:26;;;;;;;28.65;19.02;;;;;;;-144.19;100.00;76102.91;5013712;28;20053;-89
2022/01/04 00:11:05;;;;;;;31.48;18.52;;;;;;;-144.19;100.00;76102.91;5013296;28;20148;-90
2022/01/04 00:13:31;;;;;;;35.38;19.88;;;;;;;-144.19;100.00;76104.84;5022233;28;20049;-86
2022/01/04 00:15:58;;;;;;;36.10;18.63;;;;;;;-144.19;100.00;76102.91;5033452;28;20050;-89
2022/01/04 00:18:25;;;;;;;31.10;18.30;;;;;;;-144.19;100.00;76108.78;5034335;28;20050;-90
2022/01/04 00:20:53;;;;;;;29.70;16.85;;;;;;;-144.19;100.00;76102.91;5033242;28;20045;-88
2022/01/04 00:23:20;;;;;;;25.80;16.85;;;;;;;-144.19;100.00;76095.03;5032781;28;20079;-90
2022/01/04 00:25:47;;;;;;;27.08;17.17;;;;;;;-144.19;100.00;76083.22;5033349;28;20279;-89
2022/01/04 00:28:14;;;;;;;25.88;15.90;;;;;;;-144.19;100.00;76102.91;5032460;28;20057;-88
2022/01/04 00:30:41;;;;;;;27.73;16.67;;;;;;;-144.19;100.00;76083.22;5033325;28;20049;-89
2022/01/04 00:33:10;;;;;;;25.88;15.20;;;;;;;-144.19;100.00;76100.94;5032559;28;20057;-88
2022/01/04 00:35:37;;;;;;;33.60;17.35;;;;;;;-144.19;100.00;76100.94;5032924;28;20072;-90
2022/01/04 00:38:04;;;;;;;24.70;15.40;;;;;;;-144.19;100.00;76110.75;5032660;28;20053;-87
2022/01/04 00:40:30;;;;;;;26.20;16.65;;;;;;;-144.19;100.00;76106.81;5033559;28;20055;-88
2022/01/04 00:42:58;;;;;;;28.80;16.27;;;;;;;-144.19;100.00;76083.22;5032383;28;20058;-90
2022/01/04 00:45:32;;;;;;;35.78;20.30;;;;;;;-144.19;100.00;76079.28;5033519;28;20049;-90
2022/01/04 00:50:28;;;;;;;31.13;16.75;;;;;;;-144.19;100.00;76089.13;5033786;28;20051;-89
2022/01/04 00:52:55;;;;;;;27.80;15.73;;;;;;;-144.19;100.00;76098.97;5032190;28;20053;-86
2022/01/04 00:55:22;;;;;;;25.40;16.92;;;;;;;-144.19;100.00;76087.16;5031844;28;20049;-89
2022/01/04 00:57:48;;;;;;;25.73;15.55;;;;;;;-144.19;100.00;76098.97;5032273;28;20053;-88
2022/01/04 01:00:16;;;;;;;24.25;15.93;;;;;;;-144.19;100.00;76083.22;5032073;28;20049;-89
2022/01/04 01:02:44;;;;;;;30.35;16.40;;;;;;;-144.19;100.00;76075.34;5031300;28;20060;-88
2022/01/04 01:05:12;;;;;;;27.55;16.45;;;;;;;-144.19;100.00;76083.22;5033558;28;20424;-89
2022/01/04 01:07:38;;;;;;;23.17;15.63;;;;;;;-144.19;100.00;76087.16;5032166;28;20499;-87
2022/01/04 01:10:30;;;;;;;32.60;17.77;;;;;;;-144.19;100.00;76069.44;5033162;28;20060;-89
2022/01/04 01:12:56;;;;;;;29.25;17.02;;;;;;;-144.19;100.00;76059.59;5032918;28;20362;-89
2022/01/04 01:15:23;;;;;;;29.98;17.98;;;;;;;-144.19;100.00;76037.94;5031854;28;20063;-90
2022/01/04 01:17:50;;;;;;;28.92;16.98;;;;;;;-144.19;100.00;76057.63;5032157;28;20052;-89
2022/01/04 01:20:18;;;;;;;33.10;17.13;;;;;;;-144.19;100.00;76043.84;5031789;28;20056;-89
2022/01/04 01:22:44;;;;;;;31.40;17.23;;;;;;;-144.19;100.00;76032.03;5032894;28;20050;-90
2022/01/04 01:25:13;;;;;;;27.27;16.58;;;;;;;-144.19;100.00;76035.97;5031602;28;20336;-88
2022/01/04 01:27:43;;;;;;;27.20;15.32;;;;;;;-144.19;100.00;76034.00;5031608;28;20057;-86
2022/01/04 01:30:11;;;;;;;25.80;16.15;;;;;;;-144.19;100.00;76032.03;5030852;28;20045;-88
2022/01/04 01:32:38;;;;;;;23.58;14.65;;;;;;;-144.19;100.00;76024.16;5031619;28;20053;-89
2022/01/04 01:35:05;;;;;;;35.00;18.77;;;;;;;-144.19;100.00;76022.19;5032500;28;20053;-89
2022/01/04 01:37:31;;;;;;;26.63;16.13;;;;;;;-144.19;100.00;76020.22;5032737;28;20049;-89
2022/01/04 01:39:58;;;;;;;28.33;16.50;;;;;;;-144.19;100.00;76020.22;5031034;28;20132;-88
2022/01/04 01:42:24;;;;;;;31.13;19.77;;;;;;;-144.19;100.00;76018.25;5030783;28;20404;-89
2022/01/04 01:44:51;;;;;;;32.45;20.95;;;;;;;-144.19;100.00;76006.44;5011885;28;20060;-88
2022/01/04 01:47:18;;;;;;;33.30;19.05;;;;;;;-144.19;100.00;75996.63;5012963;28;20137;-88
2022/01/04 01:49:45;;;;;;;30.13;17.40;;;;;;;-144.19;100.00;76004.47;5011771;28;20069;-88
2022/01/04 01:52:12;;;;;;;32.35;19.95;;;;;;;-144.19;100.00;76002.50;5012222;28;20152;-89
2022/01/04 01:54:39;;;;;;;33.70;18.75;;;;;;;-144.19;100.00;76004.47;5011230;28;20056;-90
2022/01/04 01:57:05;;;;;;;28.77;17.07;;;;;;;-144.19;100.00;75982.84;5029505;28;20064;-89
2022/01/04 01:59:32;;;;;;;31.17;19.20;;;;;;;-144.19;100.00;75984.81;5031058;28;20431;-87
2022/01/04 02:01:59;;;;;;;31.40;18.52;;;;;;;-144.19;100.00;75996.63;5030739;28;20049;-89
2022/01/04 02:04:26;;;;;;;30.60;18.30;;;;;;;-144.19;100.00;76004.47;5032710;28;20524;-90
2022/01/04 02:06:52;;;;;;;32.33;19.43;;;;;;;-144.19;100.00;75996.63;5031046;28;20057;-87
2022/01/04 02:09:19;;;;;;;27.92;16.85;;;;;;;-144.19;100.00;75996.63;5030963;28;20052;-89
2022/01/04 02:11:46;;;;;;;;;;;;;;;-144.19;100.00;75998.59;5031080;28;20543;-89
2022/01/04 02:14:12;;;;;;;28.23;16.92;;;;;;;-144.19;100.00;75996.63;5030709;28;19921;-89
2022/01/04 02:16:39;;;;;;;26.92;17.75;;;;;;;-144.19;100.00;75984.81;5031904;28;20053;-88
2022/01/04 02:19:07;;;;;;;26.90;18.15;;;;;;;-144.19;100.00;75984.81;5032579;28;20053;-88
2022/01/04 02:21:35;;;;;;;33.88;19.77;;;;;;;-144.19;100.00;75955.28;5030458;28;20056;-89
2022/01/04 02:24:03;;;;;;;29.23;16.52;;;;;;;-144.19;100.00;75974.97;5030094;28;20053;-90
2022/01/04 02:26:30;;;;;;;26.75;17.00;;;;;;;-144.19;100.00;75953.31;5030772;28;20167;-90
2022/01/04 02:28:57;;;;;;;30.65;17.90;;;;;;;-144.19;100.00;75959.22;5030445;28;20045;-87
2022/01/04 02:31:24;;;;;;;25.13;16.33;;;;;;;-144.19;100.00;75961.19;5030146;28;20053;-89
2022/01/04 02:33:51;;;;;;;23.98;17.10;;;;;;;-144.19;100.00;75959.22;5030435;28;20049;-87
2022/01/04 02:36:17;;;;;;;24.93;16.97;;;;;;;-144.19;100.00;75955.28;5030656;28;20057;-89
2022/01/04 02:38:44;;;;;;;26.60;17.10;;;;;;;-144.19;100.00;75963.16;5031979;28;20455;-90
2022/01/04 02:41:10;;;;;;;25.77;18.17;;;;;;;-144.19;100.00;75957.25;5030142;28;20509;-90
2022/01/04 02:43:36;;;;;;;25.65;17.05;;;;;;;-144.19;100.00;75955.28;5030366;28;20057;-91
2022/01/04 02:46:03;;;;;;;25.53;15.70;;;;;;;-144.19;100.00;75953.31;5031679;28;20050;-91
2022/01/04 02:48:29;;;;;;;28.38;18.33;;;;;;;-144.19;100.00;75943.47;5032124;28;20057;-87
2022/01/04 02:50:56;;;;;;;29.05;16.05;;;;;;;-144.19;100.00;75933.63;5035440;28;20060;-88
2022/01/04 02:53:22;;;;;;;25.87;17.40;;;;;;;-144.19;100.00;75941.50;5038463;28;20049;-90
2022/01/04 02:55:49;;;;;;;24.73;15.13;;;;;;;-144.19;100.00;75931.66;5037225;28;20053;-89
2022/01/04 02:58:15;;;;;;;24.60;15.45;;;;;;;-144.19;100.00;75937.56;5036463;28;20041;-88
2022/01/04 03:00:42;;;;;;;22.13;15.43;;;;;;;-144.19;100.00;75925.75;5036779;28;20045;-89
2022/01/04 03:03:08;;;;;;;25.50;16.10;;;;;;;-144.19;100.00;75913.94;5036755;28;20461;-90
2022/01/04 03:05:35;;;;;;;23.23;16.57;;;;;;;-144.19;100.00;75929.69;5038440;28;20435;-90
2022/01/04 03:08:01;;;;;;;24.33;17.37;;;;;;;-144.19;100.00;75921.81;5037172;28;20060;-89
2022/01/04 03:10:27;;;;;;;25.52;17.23;;;;;;;-144.19;100.00;75902.16;5036982;28;20071;-90
2022/01/04 03:12:54;;;;;;;29.58;18.80;;;;;;;-144.19;100.00;75890.34;5036251;28;20241;-88
2022/01/04 03:15:20;;;;;;;29.30;17.93;;;;;;;-144.19;100.00;75894.28;5036941;28;20053;-87
2022/01/04 03:17:47;;;;;;;29.90;18.07;;;;;;;-144.19;100.00;75894.28;5036766;28;20458;-88
2022/01/04 03:20:13;;;;;;;27.30;16.40;;;;;;;-144.19;100.00;75898.22;5036758;28;20056;-89
2022/01/04 03:22:40;;;;;;;22.25;15.10;;;;;;;-144.19;100.00;75894.28;5036790;28;20090;-89
2022/01/04 03:25:07;;;;;;;23.33;15.18;;;;;;;-144.19;100.00;75892.31;5037341;28;20055;-89
2022/01/04 03:27:33;;;;;;;28.30;16.10;;;;;;;-144.19;100.00;75896.25;5037119;28;20423;-88
2022/01/04 03:30:00;;;;;;;24.47;15.53;;;;;;;-144.19;100.00;75898.22;5035900;28;20140;-90
2022/01/04 03:32:26;;;;;;;22.30;14.32;;;;;;;-144.19;100.00;75898.22;5037935;28;20492;-89
2022/01/04 03:34:53;;;;;;;25.20;15.52;;;;;;;-144.19;100.00;75874.59;5036377;28;20061;-87
2022/01/04 03:37:19;;;;;;;25.80;16.17;;;;;;;-144.19;100.00;75847.03;5037185;28;20057;-87
2022/01/04 03:39:45;;;;;;;24.93;16.07;;;;;;;-144.19;100.00;75847.03;5037349;28;20068;-89
2022/01/04 03:42:12;;;;;;;20.27;14.90;;;;;;;-144.19;100.00;75854.91;5036407;28;20151;-88
2022/01/04 03:44:39;;;;;;;27.07;16.23;;;;;;;-144.19;100.00;75845.06;5037977;28;20224;-89
2022/01/04 03:47:06;;;;;;;19.88;15.40;;;;;;;-144.19;100.00;75858.84;5036310;28;20284;-88
2022/01/04 03:49:32;;;;;;;21.50;14.48;;;;;;;-144.19;100.00;75870.66;5037198;28;20053;-90
2022/01/04 03:52:00;;;;;;;24.00;15.07;;;;;;;-144.19;100.00;75868.69;5036310;28;20045;-90
2022/01/04 03:54:26;;;;;;;26.52;15.23;;;;;;;-144.19;100.00;75856.88;5037410;28;20059;-89
2022/01/04 03:56:53;;;;;;;22.67;13.60;;;;;;;-144.19;100.00;75845.06;5049111;28;20057;-90
2022/01/04 03:59:19;;;;;;;21.23;12.90;;;;;;;-144.19;100.00;75858.84;5020414;28;20057;-89
2022/01/04 04:01:47;;;;;;;24.52;13.65;;;;;;;-144.19;100.00;75854.91;5035441;28;20052;-90
2022/01/04 04:04:14;;;;;;;26.23;14.35;;;;;;;-144.19;100.00;75839.16;5034463;28;20053;-90
2022/01/04 04:06:40;;;;;;;21.03;14.40;;;;;;;-144.19;100.00;75843.09;5017008;28;20533;-88
2022/01/04 04:09:07;;;;;;;23.58;13.73;;;;;;;-144.19;100.00;75829.31;5017322;28;20290;-89
2022/01/04 04:11:33;;;;;;;17.85;12.70;;;;;;;-144.19;100.00;75821.44;5016580;28;20317;-89
2022/01/04 04:14:00;;;;;;;24.27;12.27;;;;;;;-144.19;100.00;75839.16;5016078;28;20065;-89
2022/01/04 04:16:26;;;;;;;22.30;13.13;;;;;;;-144.19;100.00;75823.41;5016384;28;20420;-87
2022/01/04 04:18:52;;;;;;;19.87;13.70;;;;;;;-144.19;100.00;75827.34;5017054;28;20057;-87
2022/01/04 04:21:19;;;;;;;21.70;14.18;;;;;;;-144.19;100.00;75815.56;5016747;28;20284;-90
2022/01/04 04:23:45;;;;;;;20.40;14.30;;;;;;;-144.19;100.00;75801.78;5016167;28;20091;-89
2022/01/04 04:26:12;;;;;;;22.58;14.07;;;;;;;-144.19;100.00;75795.88;5016279;28;20322;-89
2022/01/04 04:28:38;;;;;;;17.13;12.43;;;;;;;-144.19;100.00;75799.81;5016322;28;20069;-88
2022/01/04 04:31:05;;;;;;;28.83;14.53;;;;;;;-144.19;100.00;75791.94;5032851;28;20069;-89
2022/01/04 04:33:32;;;;;;;27.80;15.10;;;;;;;-144.19;100.00;75784.06;5033764;28;20096;-88
2022/01/04 04:35:59;;;;;;;18.70;13.70;;;;;;;-144.19;100.00;75791.94;5033736;28;20056;-88
2022/01/04 04:38:25;;;;;;;23.65;16.00;;;;;;;-144.19;100.00;75782.09;5016481;28;20057;-89
2022/01/04 04:40:51;;;;;;;24.17;14.98;;;;;;;-144.19;100.00;75780.13;5016719;28;20049;-88
2022/01/04 04:43:18;;;;;;;22.02;14.68;;;;;;;-144.19;100.00;75782.09;5016190;28;20056;-89
2022/01/04 04:45:44;;;;;;;18.15;12.07;;;;;;;-144.19;100.00;75795.88;5015967;28;20313;-89
2022/01/04 04:48:11;;;;;;;20.70;12.25;;;;;;;-144.19;100.00;75801.78;5017205;28;20045;-89
2022/01/04 04:50:38;;;;;;;18.08;12.77;;;;;;;-144.19;100.00;75795.88;5016456;28;20060;-88
2022/01/04 04:53:05;;;;;;;23.95;14.93;;;;;;;-144.19;100.00;75784.06;5015963;28;20055;-88
2022/01/04 04:55:31;;;;;;;18.98;11.85;;;;;;;-144.19;100.00;75789.97;5018849;28;20045;-89
2022/01/04 04:57:57;;;;;;;23.13;13.90;;;;;;;-144.19;100.00;75774.22;5032225;28;20057;-87
2022/01/04 05:00:24;;;;;;;28.42;15.30;;;;;;;-144.19;100.00;75791.94;5032357;28;20065;-88
2022/01/04 05:02:50;;;;;;;22.58;15.50;;;;;;;-144.19;100.00;75789.97;5032090;28;20492;-90
2022/01/04 05:05:17;;;;;;;20.25;14.63;;;;;;;-144.19;100.00;75784.06;5032562;28;20054;-89
2022/01/04 05:07:44;;;;;;;27.25;15.95;;;;;;;-144.19;100.00;75760.44;5032020;28;20089;-87
2022/01/04 05:10:10;;;;;;;24.50;13.00;;;;;;;-144.19;100.00;75791.94;5031772;28;20057;-88
2022/01/04 05:12:36;;;;;;;20.13;12.97;;;;;;;-144.19;100.00;75797.84;5031511;28;20053;-88
2022/01/04 05:15:04;;;;;;;26.02;16.10;;;;;;;-144.19;100.00;75778.16;5032016;28;20057;-90
2022/01/04 05:17:31;;;;;;;20.80;12.98;;;;;;;-144.19;100.00;75788.00;5033116;28;20055;-89
2022/01/04 05:19:58;;;;;;;22.17;15.30;;;;;;;-144.19;100.00;75772.25;5033837;28;20055;-89
2022/01/04 05:22:25;;;;;;;30.83;16.27;;;;;;;-144.19;100.00;75768.31;5031966;28;20046;-87
2022/01/04 05:24:51;;;;;;;29.30;17.30;;;;;;;-144.19;100.00;75772.25;5031330;28;20514;-87
2022/01/04 05:27:17;;;;;;;22.13;14.73;;;;;;;-144.19;100.00;75774.22;5030970;28;20136;-88
2022/01/04 05:29:44;;;;;;;25.60;14.37;;;;;;;-144.19;100.00;75784.06;5031376;28;20050;-88
2022/01/04 05:32:10;;;;;;;26.50;15.80;;;;;;;-144.19;100.00;75772.25;5030351;28;20333;-89
2022/01/04 05:34:37;;;;;;;28.95;16.70;;;;;;;-144.19;100.00;75772.25;5031433;28;20053;-89
2022/01/04 05:37:03;;;;;;;25.20;17.73;;;;;;;-144.19;100.00;75764.38;5032373;28;20063;-89
2022/01/04 05:39:30;;;;;;;22.98;14.45;;;;;;;-144.19;100.00;75772.25;5031764;28;20288;-89
2022/01/04 05:41:57;;;;;;;30.10;16.65;;;;;;;-144.19;100.00;75768.31;5032341;28;20046;-86
2022/01/04 05:44:23;;;;;;;28.57;17.63;;;;;;;-144.19;100.00;75754.53;5031233;28;20045;-88
2022/01/04 05:46:49;;;;;;;31.10;17.87;;;;;;;-144.19;100.00;75764.38;5031366;28;20059;-87
2022/01/04 05:49:16;;;;;;;24.97;16.77;;;;;;;-144.19;100.00;75760.44;5032584;28;20065;-90
2022/01/04 05:51:43;;;;;;;31.20;18.10;;;;;;;-144.19;100.00;75762.41;5031311;28;20311;-91
2022/01/04 05:54:10;;;;;;;;;;;;;;;-144.19;100.00;75768.31;5031084;28;20060;-88
2022/01/04 05:56:36;;;;;;;27.98;16.30;;;;;;;-144.19;100.00;75758.47;5030535;28;19936;-88
2022/01/04 05:59:02;;;;;;;23.90;14.60;;;;;;;-144.19;100.00;75788.00;5031520;28;20049;-89
2022/01/04 06:01:29;;;;;;;21.93;14.87;;;;;;;-144.19;100.00;75788.00;5031633;28;20049;-88
2022/01/04 06:03:55;;;;;;;29.40;16.05;;;;;;;-144.19;100.00;75780.13;5030405;28;20076;-89
2022/01/04 06:06:22;;;;;;;23.58;13.60;;;;;;;-144.19;100.00;75768.31;5031214;28;20057;-88
2022/01/04 06:08:50;;;;;;;25.58;15.43;;;;;;;-144.19;100.00;75752.56;5031005;28;20336;-90
2022/01/04 06:11:32;;;;;;;26.17;14.80;;;;;;;-144.19;100.00;75760.44;5030697;28;20045;-88
2022/01/04 06:16:43;;;;;;;28.38;17.30;;;;;;;-144.19;100.00;75770.28;5032620;28;20436;-88
2022/01/04 06:19:10;;;;;;;23.20;15.73;;;;;;;-144.19;100.00;75764.38;5031975;28;20487;-88
2022/01/04 06:21:36;;;;;;;25.67;15.40;;;;;;;-144.19;100.00;75756.50;5030530;28;20292;-89
2022/01/04 06:24:03;;;;;;;31.10;18.27;;;;;;;-144.19;100.00;75752.56;5030440;28;20053;-88
2022/01/04 06:26:30;;;;;;;29.20;17.30;;;;;;;-144.19;100.00;75752.56;5031133;28;20288;-87
2022/01/04 06:28:56;;;;;;;27.38;14.50;;;;;;;-144.19;100.00;75752.56;5032093;28;20253;-87
2022/01/04 06:31:26;;;;;;;26.40;14.27;;;;;;;-144.19;100.00;75752.56;5030181;28;20052;-89
2022/01/04 06:33:53;;;;;;;23.90;14.98;;;;;;;-144.19;100.00;75752.56;5030284;28;20120;-87
2022/01/04 06:36:20;;;;;;;;;;;;;;;-144.19;100.00;75752.56;5031786;28;20056;-88
2022/01/04 06:38:47;;;;;;;28.38;16.23;;;;;;;-144.19;100.00;75744.69;5031562;28;19925;-87
2022/01/04 06:41:14;;;;;;;30.35;18.50;;;;;;;-144.19;100.00;75742.72;5031779;28;20056;-89
2022/01/04 06:43:40;;;;;;;28.45;17.08;;;;;;;-144.19;100.00;75736.81;5031830;28;20057;-88
2022/01/04 06:46:08;;;;;;;30.40;18.30;;;;;;;-144.19;100.00;75732.88;5031734;28;20075;-88
2022/01/04 06:48:34;;;;;;;30.48;19.20;;;;;;;-144.19;100.00;75725.03;5031088;28;20109;-87
2022/01/04 06:51:01;;;;;;;29.63;19.77;;;;;;;-144.19;100.00;75744.69;5031420;28;20045;-89
2022/01/04 06:53:27;;;;;;;31.17;17.15;;;;;;;-144.19;100.00;75748.63;5031267;28;20490;-89
2022/01/04 06:55:54;;;;;;;28.57;15.77;;;;;;;-144.19;100.00;75750.59;5030353;28;20050;-88
2022/01/04 06:58:20;;;;;;;30.73;18.42;;;;;;;-144.19;100.00;75764.38;5030687;28;20061;-90
2022/01/04 07:00:46;;;;;;;28.20;17.30;;;;;;;-144.19;100.00;75748.63;5031372;28;20053;-91
2022/01/04 07:03:13;;;;;;;29.40;18.95;;;;;;;-144.19;100.00;75764.38;5029849;28;20046;-89
2022/01/04 07:05:40;;;;;;;28.13;18.35;;;;;;;-144.19;100.00;75752.56;5032136;28;20519;-90
2022/01/04 07:08:06;;;;;;;26.90;16.83;;;;;;;-144.19;100.00;75768.31;5031609;28;20645;-89
2022/01/04 07:10:33;;;;;;;24.35;16.60;;;;;;;-144.19;100.00;75752.56;5030317;28;20061;-89
2022/01/04 07:12:59;;;;;;;26.10;16.60;;;;;;;-144.19;100.00;75748.63;5029754;28;20052;-88
2022/01/04 07:15:26;;;;;;;30.80;17.90;;;;;;;-144.19;100.00;75738.78;5030321;28;20148;-89
2022/01/04 07:17:52;;;;;;;39.70;20.50;;;;;;;-144.19;100.00;75736.81;5030448;28;20573;-89
2022/01/04 07:20:18;;;;;;;30.73;17.03;;;;;;;-144.19;100.00;75727.00;5030836;28;20057;-90
2022/01/04 07:22:45;;;;;;;29.85;17.10;;;;;;;-144.19;100.00;75742.72;5030481;28;20389;-90
2022/01/04 07:25:11;;;;;;;30.17;18.57;;;;;;;-144.19;100.00;75744.69;5030824;28;20233;-89
2022/01/04 07:27:38;;;;;;;26.60;17.13;;;;;;;-144.19;100.00;75734.84;5030533;28;20058;-89
2022/01/04 07:30:05;;;;;;;40.03;21.13;;;;;;;-144.19;100.00;75744.69;5029765;28;20054;-89
2022/01/04 07:32:31;;;;;;;33.92;17.48;;;;;;;-144.19;100.00;75730.91;5030018;28;20054;-89
2022/01/04 07:34:58;;;;;;;31.23;18.25;;;;;;;-144.19;100.00;75732.88;5029792;28;20049;-89
2022/01/04 07:37:25;;;;;;;31.27;18.10;;;;;;;-144.19;100.00;75719.13;5031853;28;20056;-89
2022/01/04 07:39:51;;;;;;;30.25;18.75;;;;;;;-144.19;100.00;75719.13;5034124;28;20754;-90
2022/01/04 07:42:18;;;;;;;28.25;17.33;;;;;;;-144.19;100.00;75736.81;5034414;28;20056;-88
2022/01/04 07:44:44;;;;;;;36.13;19.77;;;;;;;-144.19;100.00;75705.34;5033781;28;20050;-90
2022/01/04 07:47:11;;;;;;;29.05;18.25;;;;;;;-144.19;100.00;75709.28;5033632;28;20399;-90
2022/01/04 07:49:37;;;;;;;23.40;16.03;;;;;;;-144.19;100.00;75730.91;5034583;28;20057;-90
2022/01/04 07:52:04;;;;;;;28.70;17.52;;;;;;;-144.19;100.00;75728.94;5033627;28;20049;-89
2022/01/04 07:54:30;;;;;;;26.92;17.40;;;;;;;-144.19;100.00;75725.03;5033482;28;20052;-89
2022/01/04 07:56:56;;;;;;;35.65;20.95;;;;;;;-144.19;100.00;75697.47;5033178;28;20060;-87
2022/01/04 07:59:23;;;;;;;31.87;18.73;;;;;;;-144.19;100.00;75703.38;5033728;28;20053;-87
2022/01/04 08:01:49;;;;;;;31.35;17.30;;;;;;;-144.19;100.00;75717.16;5033809;28;20057;-85
2022/01/04 08:04:16;;;;;;;33.00;19.63;;;;;;;-144.19;100.00;75697.47;5015660;28;20057;-88
2022/01/04 08:06:42;;;;;;;29.77;15.37;;;;;;;-144.19;100.00;75699.44;5013941;28;20057;-88
2022/01/04 08:09:09;;;;;;;31.27;19.05;;;;;;;-144.19;100.00;75681.72;5030396;28;20084;-87
2022/01/04 08:11:35;;;;;;;33.67;17.17;;;;;;;-144.19;100.00;75695.50;5033816;28;20052;-88
2022/01/04 08:14:02;;;;;;;29.73;19.13;;;;;;;-144.19;100.00;75681.72;5032596;28;20056;-89
2022/01/04 08:16:28;;;;;;;31.17;17.20;;;;;;;-144.19;100.00;75691.56;5034810;28;20072;-93
2022/01/04 08:18:55;;;;;;;30.90;17.25;;;;;;;-144.19;100.00;75689.59;5034833;28;20045;-87
2022/01/04 08:21:32;;;;;;;29.85;16.95;;;;;;;-144.19;100.00;75679.75;5033446;28;20087;-89
2022/01/04 08:23:58;;;;;;;32.80;19.30;;;;;;;-144.19;100.00;75673.84;5032329;28;20055;-89
2022/01/04 08:26:26;;;;;;;30.93;18.40;;;;;;;-144.19;100.00;75669.91;5034734;28;20064;-91
2022/01/04 08:28:52;;;;;;;28.58;16.63;;;;;;;-144.19;100.00;75652.19;5034551;28;20294;-89
2022/01/04 08:31:19;;;;;;;28.27;17.03;;;;;;;-144.19;100.00;75681.72;5033144;28;20049;-88
2022/01/04 08:33:51;;;;;;;38.03;23.10;;;;;;;-144.19;100.00;75669.91;5032925;28;20136;-89
2022/01/04 08:36:18;;;;;;;35.55;19.80;;;;;;;-144.19;100.00;75658.09;5033533;28;20057;-90
2022/01/04 08:38:44;;;;;;;32.25;18.50;;;;;;;-144.19;100.00;75642.38;5034242;28;20449;-88
2022/01/04 08:41:10;;;;;;;31.10;18.92;;;;;;;-144.19;100.00;75638.44;5032140;28;20060;-90
2022/01/04 08:43:37;;;;;;;31.97;18.73;;;;;;;-144.19;100.00;75640.41;5033311;28;20050;-90
2022/01/04 08:46:03;;;;;;;31.23;17.43;;;;;;;-144.19;100.00;75658.09;5032581;28;20511;-88
2022/01/04 08:48:30;;;;;;;31.70;19.10;;;;;;;-144.19;100.00;75654.16;5032453;28;20051;-89
2022/01/04 08:50:56;;;;;;;33.50;18.60;;;;;;;-144.19;100.00;75650.22;5032928;28;20049;-90
2022/01/04 08:53:23;;;;;;;30.98;18.13;;;;;;;-144.19;100.00;75652.19;5032547;28;20307;-88
2022/01/04 08:55:49;;;;;;;33.90;17.52;;;;;;;-144.19;100.00;75638.44;5036792;28;20049;-90
2022/01/04 08:58:15;;;;;;;34.30;20.10;;;;;;;-144.19;100.00;75646.31;5032617;28;20049;-88
2022/01/04 09:00:43;;;;;;;30.25;17.23;;;;;;;-144.19;100.00;75650.22;5033763;28;20060;-88
2022/01/04 09:03:10;;;;;;;23.52;15.77;;;;;;;-144.19;100.00;75662.03;5032573;28;20099;-88
2022/01/04 09:05:37;;;;;;;28.95;17.35;;;;;;;-144.19;100.00;75658.09;5031706;28;20049;-90
2022/01/04 09:08:03;;;;;;;32.08;17.73;;;;;;;-144.19;100.00;75650.22;5032414;28;20049;-89
2022/01/04 09:10:30;;;;;;;28.95;16.58;;;;;;;-144.19;100.00;75650.22;5032711;28;20057;-89
2022/01/04 09:13:05;;;;;;;32.55;18.33;;;;;;;-144.19;100.00;75667.94;5031797;28;20048;-88
2022/01/04 09:21:17;;;;;;;25.10;14.63;;;;;;;-144.19;100.00;75654.16;5033288;28;20053;-90
2022/01/04 09:23:45;;;;;;;29.95;17.17;;;;;;;-144.19;100.00;75660.06;5032420;28;20049;-88
2022/01/04 09:26:14;;;;;;;33.30;18.98;;;;;;;-144.19;100.00;75646.31;5032801;28;20058;-92
2022/01/04 09:28:40;;;;;;;30.95;18.02;;;;;;;-144.19;100.00;75638.44;5033295;28;20511;-88
2022/01/04 09:31:07;;;;;;;30.90;14.48;;;;;;;-144.19;100.00;75646.31;5032504;28;20053;-87
2022/01/04 09:33:35;;;;;;;24.95;14.80;;;;;;;-144.19;100.00;75642.38;5032444;28;20056;-89
2022/01/04 09:36:21;;;;;;;27.58;16.35;;;;;;;-144.19;100.00;75640.41;5033065;28;20052;-87
2022/01/04 09:38:48;;;;;;;24.60;15.53;;;;;;;-144.19;100.00;75642.38;5032598;28;20049;-89
2022/01/04 09:41:14;;;;;;;31.85;17.25;;;;;;;-144.19;100.00;75654.16;5031742;28;20084;-89
2022/01/04 09:43:41;;;;;;;25.52;15.48;;;;;;;-144.19;100.00;75650.22;5030587;28;20053;-87
2022/01/04 09:46:07;;;;;;;24.33;15.20;;;;;;;-144.19;100.00;75654.16;5031429;28;20056;-88
2022/01/04 09:48:34;;;;;;;25.65;15.95;;;;;;;-144.19;100.00;75669.91;5031853;28;20088;-89
2022/01/04 09:51:00;;;;;;;29.83;15.07;;;;;;;-144.19;100.00;75665.97;5031743;28;20053;-88
2022/01/04 09:53:27;;;;;;;26.73;15.80;;;;;;;-144.19;100.00;75654.16;5031130;28;20050;-88
2022/01/04 09:55:55;;;;;;;26.47;15.57;;;;;;;-144.19;100.00;75650.22;5033087;28;20112;-87
2022/01/04 09:58:24;;;;;;;28.90;16.58;;;;;;;-144.19;100.00;75646.31;5014525;28;20522;-88
2022/01/04 10:00:51;;;;;;;26.15;15.20;;;;;;;-144.19;100.00;75658.09;5014237;28;20051;-89
2022/01/04 10:03:22;;;;;;;27.50;16.10;;;;;;;-144.19;100.00;75636.47;5013916;28;20554;-88
2022/01/04 10:05:59;;;;;;;27.88;15.43;;;;;;;-144.19;100.00;75654.16;5015422;28;20093;-88
2022/01/04 10:08:26;;;;;;;26.85;14.80;;;;;;;-144.19;100.00;75646.31;5033042;28;20053;-86
2022/01/04 10:11:04;;;;;;;31.17;14.47;;;;;;;-144.19;100.00;75642.38;5014526;28;20514;-89
2022/01/04 10:13:31;;;;;;;25.95;15.73;;;;;;;-144.19;100.00;75642.38;5013595;28;20323;-89
2022/01/04 10:15:59;;;;;;;41.72;17.52;;;;;;;-144.19;100.00;75614.81;5014753;28;20049;-92
2022/01/04 10:18:28;;;;;;;26.88;16.52;;;;;;;-144.19;100.00;75628.59;5032388;28;20049;-90
2022/01/04 10:20:58;;;;;;;27.05;15.90;;;;;;;-144.19;100.00;75604.97;5014937;28;20053;-88
2022/01/04 10:23:25;;;;;;;25.70;15.15;;;;;;;-144.19;100.00;75610.88;5014529;28;20049;-90
2022/01/04 10:26:02;;;;;;;30.48;17.75;;;;;;;-144.19;100.00;75591.19;5014872;28;20128;-87
2022/01/04 10:28:34;;;;;;;26.83;15.20;;;;;;;-144.19;100.00;75591.19;5014991;28;20245;-86
2022/01/04 10:31:15;;;;;;;32.05;16.15;;;;;;;-144.19;100.00;75603.00;5010559;28;20056;-88
2022/01/04 10:33:42;;;;;;;32.10;17.25;;;;;;;-144.19;100.00;75604.97;4994344;28;20050;-90
2022/01/04 10:36:13;;;;;;;28.08;15.38;;;;;;;-144.19;100.00;75610.88;4994855;28;20049;-87
2022/01/04 10:38:42;;;;;;;25.58;16.40;;;;;;;-144.19;100.00;75610.88;4994222;28;20500;-88
2022/01/04 10:41:25;;;;;;;25.42;14.85;;;;;;;-144.19;100.00;75595.13;4994646;28;20061;-89
2022/01/04 10:43:59;;;;;;;27.77;16.35;;;;;;;-144.19;100.00;75583.31;4994152;28;20137;-88
2022/01/04 10:46:38;;;;;;;27.27;14.68;;;;;;;-144.19;100.00;75593.16;5007220;28;20054;-89
2022/01/04 10:49:16;;;;;;;20.83;12.55;;;;;;;-144.19;100.00;75587.25;5014420;28;20049;-87
2022/01/04 10:51:44;;;;;;;28.95;15.35;;;;;;;-144.19;100.00;75563.66;5014183;28;20049;-86
2022/01/04 10:54:19;;;;;;;27.77;14.73;;;;;;;-144.19;100.00;75555.78;5030929;28;20045;-87
2022/01/04 10:56:46;;;;;;;26.70;14.65;;;;;;;-144.19;100.00;75551.84;5026855;28;20060;-87
2022/01/04 10:59:13;;;;;;;26.75;15.73;;;;;;;-144.19;100.00;75547.91;5031454;28;20075;-88
2022/01/04 11:01:47;;;;;;;21.63;13.73;;;;;;;-144.19;100.00;75551.84;5030037;28;20064;-87
2022/01/04 11:04:17;;;;;;;23.10;13.48;;;;;;;-144.19;100.00;75543.97;5030194;28;20518;-87
2022/01/04 11:06:45;;;;;;;24.65;14.73;;;;;;;-144.19;100.00;75508.53;5030664;28;20050;-86